sensor_id;sensor_type;location;lat;lon;timestamp;P1;durP1;ratioP1;P2;durP2;ratioP2
67363;SDS011;54250;45.572;38.086;2023-09-19T00:01:34;3.08;;;1.92;;
67363;SDS011;54250;45.572;38.086;2023-09-19T00:04:01;2.53;;;1.45;;
67363;SDS011;54250;45.572;38.086;2023-09-19T00:06:28;1.58;;;1.20;;
67363;SDS011;54250;45.572;38.086;2023-09-19T00:08:57;2.20;;;1.33;;
67363;SDS011;54250;45.572;38.086;2023-09-19T00:11:25;5.97;;;1.50;;
67363;SDS011;54250;45.572;38.086;2023-09-19T00:13:52;2.95;;;2.03;;
67363;SDS011;54250;45.572;38.086;2023-09-19T00:16:18;4.90;;;1.77;;
67363;SDS011;54250;45.572;38.086;2023-09-19T00:18:44;2.30;;;1.17;;
67363;SDS011;54250;45.572;38.086;2023-09-19T00:21:11;7.68;;;1.92;;
67363;SDS011;54250;45.572;38.086;2023-09-19T00:23:37;5.40;;;2.05;;
67363;SDS011;54250;45.572;38.086;2023-09-19T00:26:03;3.15;;;2.03;;
67363;SDS011;54250;45.572;38.086;2023-09-19T00:28:29;2.33;;;1.65;;
67363;SDS011;54250;45.572;38.086;2023-09-19T00:30:57;3.75;;;1.40;;
67363;SDS011;54250;45.572;38.086;2023-09-19T00:33:26;3.00;;;1.83;;
67363;SDS011;54250;45.572;38.086;2023-09-19T00:35:56;1.83;;;1.17;;
67363;SDS011;54250;45.572;38.086;2023-09-19T00:38:23;4.07;;;2.35;;
67363;SDS011;54250;45.572;38.086;2023-09-19T00:40:52;6.47;;;2.08;;
67363;SDS011;54250;45.572;38.086;2023-09-19T00:43:20;1.80;;;1.35;;
67363;SDS011;54250;45.572;38.086;2023-09-19T00:45:50;5.63;;;1.90;;
67363;SDS011;54250;45.572;38.086;2023-09-19T00:48:20;4.15;;;1.90;;
67363;SDS011;54250;45.572;38.086;2023-09-19T00:50:47;2.40;;;1.80;;
67363;SDS011;54250;45.572;38.086;2023-09-19T00:53:15;1.80;;;1.40;;
67363;SDS011;54250;45.572;38.086;2023-09-19T00:55:45;6.60;;;2.40;;
67363;SDS011;54250;45.572;38.086;2023-09-19T00:58:13;4.50;;;1.88;;
67363;SDS011;54250;45.572;38.086;2023-09-19T01:00:40;1.80;;;1.50;;
67363;SDS011;54250;45.572;38.086;2023-09-19T01:03:06;3.20;;;2.03;;
67363;SDS011;54250;45.572;38.086;2023-09-19T01:05:35;1.60;;;1.50;;
67363;SDS011;54250;45.572;38.086;2023-09-19T01:08:01;4.03;;;1.85;;
67363;SDS011;54250;45.572;38.086;2023-09-19T01:10:27;1.85;;;1.38;;
67363;SDS011;54250;45.572;38.086;2023-09-19T01:21:29;3.30;;;1.85;;
67363;SDS011;54250;45.572;38.086;2023-09-19T01:27:17;3.08;;;1.58;;
67363;SDS011;54250;45.572;38.086;2023-09-19T01:30:09;2.85;;;1.85;;
67363;SDS011;54250;45.572;38.086;2023-09-19T01:32:36;4.07;;;1.80;;
67363;SDS011;54250;45.572;38.086;2023-09-19T01:35:04;3.30;;;1.27;;
67363;SDS011;54250;45.572;38.086;2023-09-19T01:37:30;3.80;;;1.67;;
67363;SDS011;54250;45.572;38.086;2023-09-19T01:42:41;1.63;;;1.42;;
67363;SDS011;54250;45.572;38.086;2023-09-19T01:51:11;1.80;;;1.52;;
67363;SDS011;54250;45.572;38.086;2023-09-19T01:53:43;3.15;;;1.40;;
67363;SDS011;54250;45.572;38.086;2023-09-19T01:56:16;5.63;;;1.70;;
67363;SDS011;54250;45.572;38.086;2023-09-19T01:59:13;2.67;;;1.02;;
67363;SDS011;54250;45.572;38.086;2023-09-19T02:01:51;1.75;;;1.60;;
67363;SDS011;54250;45.572;38.086;2023-09-19T02:04:18;4.68;;;2.25;;
67363;SDS011;54250;45.572;38.086;2023-09-19T02:06:44;3.70;;;2.45;;
67363;SDS011;54250;45.572;38.086;2023-09-19T02:09:13;4.30;;;2.08;;
67363;SDS011;54250;45.572;38.086;2023-09-19T02:11:42;4.22;;;1.70;;
67363;SDS011;54250;45.572;38.086;2023-09-19T02:14:08;2.47;;;1.65;;
67363;SDS011;54250;45.572;38.086;2023-09-19T02:16:34;6.20;;;1.42;;
67363;SDS011;54250;45.572;38.086;2023-09-19T02:19:00;2.03;;;1.38;;
67363;SDS011;54250;45.572;38.086;2023-09-19T02:21:30;1.33;;;0.85;;
67363;SDS011;54250;45.572;38.086;2023-09-19T02:23:57;3.45;;;2.05;;
67363;SDS011;54250;45.572;38.086;2023-09-19T02:26:24;2.35;;;1.30;;
67363;SDS011;54250;45.572;38.086;2023-09-19T02:28:50;3.33;;;1.73;;
67363;SDS011;54250;45.572;38.086;2023-09-19T02:31:16;12.30;;;2.25;;
67363;SDS011;54250;45.572;38.086;2023-09-19T02:33:42;2.70;;;1.75;;
67363;SDS011;54250;45.572;38.086;2023-09-19T02:36:08;2.92;;;1.90;;
67363;SDS011;54250;45.572;38.086;2023-09-19T02:38:35;3.75;;;1.63;;
67363;SDS011;54250;45.572;38.086;2023-09-19T02:41:00;2.65;;;1.25;;
67363;SDS011;54250;45.572;38.086;2023-09-19T02:43:26;3.72;;;2.03;;
67363;SDS011;54250;45.572;38.086;2023-09-19T02:45:52;1.40;;;0.90;;
67363;SDS011;54250;45.572;38.086;2023-09-19T02:48:19;2.50;;;1.88;;
67363;SDS011;54250;45.572;38.086;2023-09-19T02:50:46;2.88;;;1.48;;
67363;SDS011;54250;45.572;38.086;2023-09-19T02:53:14;1.38;;;0.98;;
67363;SDS011;54250;45.572;38.086;2023-09-19T02:55:40;2.33;;;2.03;;
67363;SDS011;54250;45.572;38.086;2023-09-19T02:58:08;3.28;;;1.48;;
67363;SDS011;54250;45.572;38.086;2023-09-19T03:00:36;2.88;;;1.90;;
67363;SDS011;54250;45.572;38.086;2023-09-19T03:03:02;3.72;;;1.58;;
67363;SDS011;54250;45.572;38.086;2023-09-19T03:05:30;2.30;;;1.88;;
67363;SDS011;54250;45.572;38.086;2023-09-19T03:07:56;1.95;;;1.45;;
67363;SDS011;54250;45.572;38.086;2023-09-19T03:10:26;2.75;;;1.70;;
67363;SDS011;54250;45.572;38.086;2023-09-19T03:12:54;2.72;;;1.88;;
67363;SDS011;54250;45.572;38.086;2023-09-19T03:15:21;3.25;;;1.88;;
67363;SDS011;54250;45.572;38.086;2023-09-19T03:17:49;2.55;;;2.03;;
67363;SDS011;54250;45.572;38.086;2023-09-19T03:20:20;2.25;;;1.98;;
67363;SDS011;54250;45.572;38.086;2023-09-19T03:22:47;6.78;;;1.60;;
67363;SDS011;54250;45.572;38.086;2023-09-19T03:25:15;3.45;;;2.20;;
67363;SDS011;54250;45.572;38.086;2023-09-19T03:27:46;4.35;;;2.53;;
67363;SDS011;54250;45.572;38.086;2023-09-19T03:30:13;3.22;;;1.77;;
67363;SDS011;54250;45.572;38.086;2023-09-19T03:32:44;4.50;;;2.38;;
67363;SDS011;54250;45.572;38.086;2023-09-19T03:35:12;2.00;;;1.25;;
67363;SDS011;54250;45.572;38.086;2023-09-19T03:37:41;3.60;;;2.08;;
67363;SDS011;54250;45.572;38.086;2023-09-19T03:40:11;7.32;;;2.42;;
67363;SDS011;54250;45.572;38.086;2023-09-19T03:42:38;7.00;;;2.63;;
67363;SDS011;54250;45.572;38.086;2023-09-19T03:45:10;5.03;;;2.55;;
67363;SDS011;54250;45.572;38.086;2023-09-19T03:47:39;5.57;;;3.17;;
67363;SDS011;54250;45.572;38.086;2023-09-19T03:50:07;17.50;;;3.22;;
67363;SDS011;54250;45.572;38.086;2023-09-19T03:52:36;5.35;;;3.05;;
67363;SDS011;54250;45.572;38.086;2023-09-19T03:55:02;4.30;;;1.88;;
67363;SDS011;54250;45.572;38.086;2023-09-19T03:57:29;5.18;;;2.70;;
67363;SDS011;54250;45.572;38.086;2023-09-19T03:59:56;2.13;;;1.20;;
67363;SDS011;54250;45.572;38.086;2023-09-19T04:02:22;5.05;;;2.28;;
67363;SDS011;54250;45.572;38.086;2023-09-19T04:04:50;2.38;;;2.00;;
67363;SDS011;54250;45.572;38.086;2023-09-19T04:07:17;24.92;;;2.22;;
67363;SDS011;54250;45.572;38.086;2023-09-19T04:09:45;6.60;;;3.10;;
67363;SDS011;54250;45.572;38.086;2023-09-19T04:12:11;9.35;;;3.10;;
67363;SDS011;54250;45.572;38.086;2023-09-19T04:14:37;9.52;;;4.85;;
67363;SDS011;54250;45.572;38.086;2023-09-19T04:17:04;9.40;;;2.78;;
67363;SDS011;54250;45.572;38.086;2023-09-19T04:19:31;3.72;;;2.20;;
67363;SDS011;54250;45.572;38.086;2023-09-19T04:21:57;5.03;;;2.58;;
67363;SDS011;54250;45.572;38.086;2023-09-19T04:24:23;12.02;;;3.70;;
67363;SDS011;54250;45.572;38.086;2023-09-19T04:26:49;5.10;;;2.47;;
67363;SDS011;54250;45.572;38.086;2023-09-19T04:29:15;14.25;;;4.32;;
67363;SDS011;54250;45.572;38.086;2023-09-19T04:31:41;6.25;;;2.75;;
67363;SDS011;54250;45.572;38.086;2023-09-19T04:34:09;5.22;;;2.83;;
67363;SDS011;54250;45.572;38.086;2023-09-19T04:36:35;5.60;;;2.95;;
67363;SDS011;54250;45.572;38.086;2023-09-19T04:39:02;6.50;;;3.22;;
67363;SDS011;54250;45.572;38.086;2023-09-19T04:41:32;5.55;;;2.83;;
67363;SDS011;54250;45.572;38.086;2023-09-19T04:43:59;6.28;;;2.50;;
67363;SDS011;54250;45.572;38.086;2023-09-19T04:46:25;5.25;;;2.30;;
67363;SDS011;54250;45.572;38.086;2023-09-19T04:48:51;8.65;;;2.97;;
67363;SDS011;54250;45.572;38.086;2023-09-19T04:51:17;7.60;;;3.67;;
67363;SDS011;54250;45.572;38.086;2023-09-19T04:53:44;6.80;;;3.60;;
67363;SDS011;54250;45.572;38.086;2023-09-19T04:56:10;14.57;;;3.10;;
67363;SDS011;54250;45.572;38.086;2023-09-19T04:58:36;4.47;;;2.40;;
67363;SDS011;54250;45.572;38.086;2023-09-19T05:01:02;4.35;;;2.40;;
67363;SDS011;54250;45.572;38.086;2023-09-19T05:03:28;7.90;;;2.55;;
67363;SDS011;54250;45.572;38.086;2023-09-19T05:05:54;5.85;;;2.92;;
67363;SDS011;54250;45.572;38.086;2023-09-19T05:08:20;4.68;;;2.72;;
67363;SDS011;54250;45.572;38.086;2023-09-19T05:10:47;6.50;;;3.28;;
67363;SDS011;54250;45.572;38.086;2023-09-19T05:13:14;9.27;;;3.22;;
67363;SDS011;54250;45.572;38.086;2023-09-19T05:15:40;7.07;;;2.47;;
67363;SDS011;54250;45.572;38.086;2023-09-19T05:18:06;11.45;;;2.30;;
67363;SDS011;54250;45.572;38.086;2023-09-19T05:20:32;4.00;;;2.33;;
67363;SDS011;54250;45.572;38.086;2023-09-19T05:23:04;3.95;;;2.72;;
67363;SDS011;54250;45.572;38.086;2023-09-19T05:25:38;3.38;;;2.00;;
67363;SDS011;54250;45.572;38.086;2023-09-19T05:28:05;8.05;;;3.05;;
67363;SDS011;54250;45.572;38.086;2023-09-19T05:30:32;5.47;;;2.65;;
67363;SDS011;54250;45.572;38.086;2023-09-19T05:33:01;4.93;;;2.35;;
67363;SDS011;54250;45.572;38.086;2023-09-19T05:35:31;4.20;;;2.42;;
67363;SDS011;54250;45.572;38.086;2023-09-19T05:37:57;7.90;;;3.00;;
67363;SDS011;54250;45.572;38.086;2023-09-19T05:40:23;6.88;;;2.97;;
67363;SDS011;54250;45.572;38.086;2023-09-19T05:42:50;4.63;;;2.38;;
67363;SDS011;54250;45.572;38.086;2023-09-19T05:45:16;4.70;;;2.53;;
67363;SDS011;54250;45.572;38.086;2023-09-19T05:47:51;3.70;;;2.53;;
67363;SDS011;54250;45.572;38.086;2023-09-19T05:50:21;5.55;;;2.97;;
67363;SDS011;54250;45.572;38.086;2023-09-19T05:52:54;12.38;;;3.30;;
67363;SDS011;54250;45.572;38.086;2023-09-19T05:55:21;7.50;;;4.25;;
67363;SDS011;54250;45.572;38.086;2023-09-19T05:57:53;11.20;;;3.65;;
67363;SDS011;54250;45.572;38.086;2023-09-19T06:00:19;3.83;;;2.40;;
67363;SDS011;54250;45.572;38.086;2023-09-19T06:02:50;4.85;;;2.90;;
67363;SDS011;54250;45.572;38.086;2023-09-19T06:05:20;7.13;;;3.95;;
67363;SDS011;54250;45.572;38.086;2023-09-19T06:07:46;13.93;;;5.03;;
67363;SDS011;54250;45.572;38.086;2023-09-19T06:10:12;5.35;;;2.00;;
67363;SDS011;54250;45.572;38.086;2023-09-19T06:12:40;5.75;;;2.65;;
67363;SDS011;54250;45.572;38.086;2023-09-19T06:15:09;11.88;;;4.38;;
67363;SDS011;54250;45.572;38.086;2023-09-19T06:17:41;9.00;;;3.92;;
67363;SDS011;54250;45.572;38.086;2023-09-19T06:20:08;5.97;;;3.00;;
67363;SDS011;54250;45.572;38.086;2023-09-19T06:22:44;4.03;;;2.72;;
67363;SDS011;54250;45.572;38.086;2023-09-19T06:25:11;9.27;;;3.72;;
67363;SDS011;54250;45.572;38.086;2023-09-19T06:27:38;8.02;;;3.03;;
67363;SDS011;54250;45.572;38.086;2023-09-19T06:30:08;7.80;;;3.45;;
67363;SDS011;54250;45.572;38.086;2023-09-19T06:32:36;5.45;;;2.67;;
67363;SDS011;54250;45.572;38.086;2023-09-19T06:35:02;6.57;;;2.80;;
67363;SDS011;54250;45.572;38.086;2023-09-19T06:37:32;6.10;;;2.97;;
67363;SDS011;54250;45.572;38.086;2023-09-19T06:39:59;7.00;;;3.33;;
67363;SDS011;54250;45.572;38.086;2023-09-19T06:42:25;6.35;;;2.75;;
67363;SDS011;54250;45.572;38.086;2023-09-19T06:44:53;9.43;;;3.08;;
67363;SDS011;54250;45.572;38.086;2023-09-19T06:47:19;9.45;;;2.15;;
67363;SDS011;54250;45.572;38.086;2023-09-19T06:49:46;5.88;;;2.78;;
67363;SDS011;54250;45.572;38.086;2023-09-19T06:52:12;8.82;;;3.55;;
67363;SDS011;54250;45.572;38.086;2023-09-19T06:54:38;7.75;;;3.35;;
67363;SDS011;54250;45.572;38.086;2023-09-19T06:57:05;8.40;;;3.67;;
67363;SDS011;54250;45.572;38.086;2023-09-19T06:59:31;5.93;;;3.67;;
67363;SDS011;54250;45.572;38.086;2023-09-19T07:01:57;10.85;;;4.07;;
67363;SDS011;54250;45.572;38.086;2023-09-19T07:04:24;8.48;;;2.97;;
67363;SDS011;54250;45.572;38.086;2023-09-19T07:06:50;7.80;;;4.05;;
67363;SDS011;54250;45.572;38.086;2023-09-19T07:09:16;10.82;;;4.80;;
67363;SDS011;54250;45.572;38.086;2023-09-19T07:11:44;6.78;;;4.05;;
67363;SDS011;54250;45.572;38.086;2023-09-19T07:14:11;9.13;;;3.28;;
67363;SDS011;54250;45.572;38.086;2023-09-19T07:16:37;7.43;;;3.92;;
67363;SDS011;54250;45.572;38.086;2023-09-19T07:19:04;7.90;;;3.58;;
67363;SDS011;54250;45.572;38.086;2023-09-19T07:21:31;8.98;;;2.97;;
67363;SDS011;54250;45.572;38.086;2023-09-19T07:24:00;12.05;;;3.45;;
67363;SDS011;54250;45.572;38.086;2023-09-19T07:26:29;6.13;;;3.03;;
67363;SDS011;54250;45.572;38.086;2023-09-19T07:28:56;4.30;;;2.40;;
67363;SDS011;54250;45.572;38.086;2023-09-19T07:31:23;4.38;;;2.33;;
67363;SDS011;54250;45.572;38.086;2023-09-19T07:33:50;7.43;;;3.30;;
67363;SDS011;54250;45.572;38.086;2023-09-19T07:36:16;5.70;;;2.50;;
67363;SDS011;54250;45.572;38.086;2023-09-19T07:38:42;4.22;;;2.10;;
67363;SDS011;54250;45.572;38.086;2023-09-19T07:41:08;5.03;;;1.73;;
67363;SDS011;54250;45.572;38.086;2023-09-19T07:43:37;6.05;;;2.47;;
67363;SDS011;54250;45.572;38.086;2023-09-19T07:46:07;4.60;;;1.73;;
67363;SDS011;54250;45.572;38.086;2023-09-19T07:48:34;3.10;;;2.40;;
67363;SDS011;54250;45.572;38.086;2023-09-19T07:51:06;3.97;;;2.38;;
67363;SDS011;54250;45.572;38.086;2023-09-19T07:53:33;3.92;;;2.28;;
67363;SDS011;54250;45.572;38.086;2023-09-19T07:56:03;6.03;;;1.58;;
67363;SDS011;54250;45.572;38.086;2023-09-19T07:58:30;1.73;;;1.20;;
67363;SDS011;54250;45.572;38.086;2023-09-19T08:01:02;2.10;;;1.23;;
67363;SDS011;54250;45.572;38.086;2023-09-19T08:03:29;1.37;;;1.27;;
67363;SDS011;54250;45.572;38.086;2023-09-19T08:05:56;4.78;;;0.82;;
67363;SDS011;54250;45.572;38.086;2023-09-19T08:08:23;1.48;;;0.88;;
67363;SDS011;54250;45.572;38.086;2023-09-19T08:10:55;3.10;;;1.13;;
67363;SDS011;54250;45.572;38.086;2023-09-19T08:13:25;1.23;;;0.73;;
67363;SDS011;54250;45.572;38.086;2023-09-19T08:15:51;3.45;;;1.10;;
67363;SDS011;54250;45.572;38.086;2023-09-19T08:18:20;4.00;;;1.13;;
67363;SDS011;54250;45.572;38.086;2023-09-19T08:20:50;4.63;;;1.42;;
67363;SDS011;54250;45.572;38.086;2023-09-19T08:23:16;2.13;;;1.55;;
67363;SDS011;54250;45.572;38.086;2023-09-19T08:25:45;4.45;;;1.30;;
67363;SDS011;54250;45.572;38.086;2023-09-19T08:28:12;2.00;;;1.42;;
67363;SDS011;54250;45.572;38.086;2023-09-19T08:30:44;1.80;;;1.38;;
67363;SDS011;54250;45.572;38.086;2023-09-19T08:33:11;2.85;;;1.30;;
67363;SDS011;54250;45.572;38.086;2023-09-19T08:35:37;1.02;;;0.77;;
67363;SDS011;54250;45.572;38.086;2023-09-19T08:38:05;1.05;;;0.90;;
67363;SDS011;54250;45.572;38.086;2023-09-19T08:40:32;1.35;;;1.10;;
67363;SDS011;54250;45.572;38.086;2023-09-19T08:43:01;8.18;;;1.77;;
67363;SDS011;54250;45.572;38.086;2023-09-19T08:45:27;2.35;;;1.30;;
67363;SDS011;54250;45.572;38.086;2023-09-19T08:47:59;1.50;;;1.00;;
67363;SDS011;54250;45.572;38.086;2023-09-19T08:50:43;2.92;;;1.40;;
67363;SDS011;54250;45.572;38.086;2023-09-19T08:53:19;3.58;;;1.73;;
67363;SDS011;54250;45.572;38.086;2023-09-19T08:55:57;2.65;;;1.30;;
67363;SDS011;54250;45.572;38.086;2023-09-19T08:58:29;1.92;;;1.33;;
67363;SDS011;54250;45.572;38.086;2023-09-19T09:01:00;2.13;;;1.13;;
67363;SDS011;54250;45.572;38.086;2023-09-19T09:03:29;3.15;;;1.35;;
67363;SDS011;54250;45.572;38.086;2023-09-19T09:05:59;1.87;;;1.33;;
67363;SDS011;54250;45.572;38.086;2023-09-19T09:08:25;3.83;;;1.92;;
67363;SDS011;54250;45.572;38.086;2023-09-19T09:10:52;5.43;;;1.50;;
67363;SDS011;54250;45.572;38.086;2023-09-19T09:13:18;2.53;;;1.60;;
67363;SDS011;54250;45.572;38.086;2023-09-19T09:15:45;4.07;;;1.98;;
67363;SDS011;54250;45.572;38.086;2023-09-19T09:18:11;1.65;;;1.17;;
67363;SDS011;54250;45.572;38.086;2023-09-19T09:20:37;2.60;;;1.23;;
67363;SDS011;54250;45.572;38.086;2023-09-19T09:23:03;2.63;;;1.15;;
67363;SDS011;54250;45.572;38.086;2023-09-19T09:28:22;3.03;;;1.63;;
67363;SDS011;54250;45.572;38.086;2023-09-19T09:30:50;2.88;;;1.25;;
67363;SDS011;54250;45.572;38.086;2023-09-19T09:33:16;1.73;;;1.08;;
67363;SDS011;54250;45.572;38.086;2023-09-19T09:35:50;3.17;;;1.17;;
67363;SDS011;54250;45.572;38.086;2023-09-19T09:38:18;10.20;;;1.55;;
67363;SDS011;54250;45.572;38.086;2023-09-19T09:40:49;2.63;;;1.25;;
67363;SDS011;54250;45.572;38.086;2023-09-19T09:43:35;3.30;;;1.65;;
67363;SDS011;54250;45.572;38.086;2023-09-19T09:48:55;1.50;;;1.20;;
67363;SDS011;54250;45.572;38.086;2023-09-19T09:52:01;2.00;;;1.10;;
67363;SDS011;54250;45.572;38.086;2023-09-19T09:55:01;6.05;;;1.80;;
67363;SDS011;54250;45.572;38.086;2023-09-19T09:57:33;3.60;;;0.88;;
67363;SDS011;54250;45.572;38.086;2023-09-19T10:00:00;1.40;;;0.85;;
67363;SDS011;54250;45.572;38.086;2023-09-19T10:02:39;1.92;;;1.30;;
67363;SDS011;54250;45.572;38.086;2023-09-19T10:05:18;2.35;;;1.23;;
67363;SDS011;54250;45.572;38.086;2023-09-19T10:07:49;1.27;;;0.70;;
67363;SDS011;54250;45.572;38.086;2023-09-19T10:10:41;1.65;;;1.20;;
67363;SDS011;54250;45.572;38.086;2023-09-19T10:13:13;3.30;;;1.60;;
67363;SDS011;54250;45.572;38.086;2023-09-19T10:15:50;3.13;;;1.30;;
67363;SDS011;54250;45.572;38.086;2023-09-19T10:18:22;3.83;;;1.50;;
67363;SDS011;54250;45.572;38.086;2023-09-19T10:20:50;1.50;;;1.23;;
67363;SDS011;54250;45.572;38.086;2023-09-19T10:23:17;1.67;;;0.65;;
67363;SDS011;54250;45.572;38.086;2023-09-19T10:25:52;1.63;;;1.02;;
67363;SDS011;54250;45.572;38.086;2023-09-19T10:28:19;5.40;;;1.80;;
67363;SDS011;54250;45.572;38.086;2023-09-19T10:30:50;5.05;;;1.10;;
67363;SDS011;54250;45.572;38.086;2023-09-19T10:33:17;2.72;;;0.98;;
67363;SDS011;54250;45.572;38.086;2023-09-19T10:35:51;1.33;;;1.13;;
67363;SDS011;54250;45.572;38.086;2023-09-19T10:38:24;3.03;;;1.00;;
67363;SDS011;54250;45.572;38.086;2023-09-19T10:40:55;2.70;;;1.42;;
67363;SDS011;54250;45.572;38.086;2023-09-19T10:43:26;1.77;;;1.27;;
67363;SDS011;54250;45.572;38.086;2023-09-19T10:45:57;2.72;;;1.23;;
67363;SDS011;54250;45.572;38.086;2023-09-19T10:48:29;1.75;;;0.98;;
67363;SDS011;54250;45.572;38.086;2023-09-19T10:53:54;2.70;;;1.10;;
67363;SDS011;54250;45.572;38.086;2023-09-19T10:56:36;4.10;;;1.23;;
67363;SDS011;54250;45.572;38.086;2023-09-19T10:59:10;4.40;;;1.67;;
67363;SDS011;54250;45.572;38.086;2023-09-19T11:07:05;2.47;;;1.38;;
67363;SDS011;54250;45.572;38.086;2023-09-19T11:14:54;2.22;;;1.20;;
67363;SDS011;54250;45.572;38.086;2023-09-19T11:30:35;0.93;;;0.85;;
67363;SDS011;54250;45.572;38.086;2023-09-19T11:43:52;1.73;;;1.15;;
67363;SDS011;54250;45.572;38.086;2023-09-19T11:46:24;4.95;;;1.10;;
67363;SDS011;54250;45.572;38.086;2023-09-19T11:48:50;2.05;;;1.20;;
67363;SDS011;54250;45.572;38.086;2023-09-19T11:51:21;5.97;;;1.10;;
67363;SDS011;54250;45.572;38.086;2023-09-19T11:53:49;6.65;;;1.42;;
67363;SDS011;54250;45.572;38.086;2023-09-19T11:56:17;3.50;;;1.35;;
67363;SDS011;54250;45.572;38.086;2023-09-19T11:58:45;1.60;;;1.00;;
67363;SDS011;54250;45.572;38.086;2023-09-19T12:01:12;1.70;;;0.90;;
67363;SDS011;54250;45.572;38.086;2023-09-19T12:03:41;2.38;;;1.30;;
67363;SDS011;54250;45.572;38.086;2023-09-19T12:06:14;2.45;;;0.98;;
67363;SDS011;54250;45.572;38.086;2023-09-19T12:08:42;7.00;;;1.17;;
67363;SDS011;54250;45.572;38.086;2023-09-19T12:11:12;4.03;;;1.60;;
67363;SDS011;54250;45.572;38.086;2023-09-19T12:13:46;1.92;;;1.00;;
67363;SDS011;54250;45.572;38.086;2023-09-19T12:16:14;5.35;;;1.40;;
67363;SDS011;54250;45.572;38.086;2023-09-19T12:18:47;4.40;;;1.23;;
67363;SDS011;54250;45.572;38.086;2023-09-19T12:24:18;2.57;;;1.33;;
67363;SDS011;54250;45.572;38.086;2023-09-19T12:26:46;1.98;;;1.25;;
67363;SDS011;54250;45.572;38.086;2023-09-19T12:29:20;6.27;;;1.27;;
67363;SDS011;54250;45.572;38.086;2023-09-19T12:31:48;6.82;;;1.90;;
67363;SDS011;54250;45.572;38.086;2023-09-19T12:34:19;1.90;;;1.38;;
67363;SDS011;54250;45.572;38.086;2023-09-19T12:36:46;3.20;;;1.48;;
67363;SDS011;54250;45.572;38.086;2023-09-19T12:39:22;4.00;;;1.75;;
67363;SDS011;54250;45.572;38.086;2023-09-19T12:41:50;3.30;;;2.25;;
67363;SDS011;54250;45.572;38.086;2023-09-19T12:44:17;8.77;;;2.63;;
67363;SDS011;54250;45.572;38.086;2023-09-19T12:46:43;4.60;;;1.70;;
67363;SDS011;54250;45.572;38.086;2023-09-19T12:49:17;2.58;;;1.70;;
67363;SDS011;54250;45.572;38.086;2023-09-19T12:51:44;1.48;;;1.20;;
67363;SDS011;54250;45.572;38.086;2023-09-19T12:54:12;3.33;;;1.20;;
67363;SDS011;54250;45.572;38.086;2023-09-19T12:56:42;3.13;;;1.55;;
67363;SDS011;54250;45.572;38.086;2023-09-19T12:59:14;4.95;;;1.90;;
67363;SDS011;54250;45.572;38.086;2023-09-19T13:01:41;4.40;;;1.60;;
67363;SDS011;54250;45.572;38.086;2023-09-19T13:06:53;2.22;;;1.10;;
67363;SDS011;54250;45.572;38.086;2023-09-19T13:09:21;1.40;;;1.20;;
67363;SDS011;54250;45.572;38.086;2023-09-19T13:11:53;6.32;;;1.10;;
67363;SDS011;54250;45.572;38.086;2023-09-19T13:14:21;9.77;;;1.52;;
67363;SDS011;54250;45.572;38.086;2023-09-19T13:25:05;3.33;;;1.17;;
67363;SDS011;54250;45.572;38.086;2023-09-19T13:27:32;1.50;;;0.90;;
67363;SDS011;54250;45.572;38.086;2023-09-19T13:29:58;1.38;;;1.08;;
67363;SDS011;54250;45.572;38.086;2023-09-19T13:32:25;4.28;;;2.05;;
67363;SDS011;54250;45.572;38.086;2023-09-19T13:34:51;2.83;;;1.95;;
67363;SDS011;54250;45.572;38.086;2023-09-19T13:37:17;3.30;;;1.67;;
67363;SDS011;54250;45.572;38.086;2023-09-19T13:39:43;2.95;;;1.30;;
67363;SDS011;54250;45.572;38.086;2023-09-19T13:42:13;5.75;;;1.77;;
67363;SDS011;54250;45.572;38.086;2023-09-19T13:44:39;4.25;;;2.03;;
67363;SDS011;54250;45.572;38.086;2023-09-19T13:47:06;2.28;;;1.67;;
67363;SDS011;54250;45.572;38.086;2023-09-19T13:49:36;3.30;;;1.48;;
67363;SDS011;54250;45.572;38.086;2023-09-19T13:52:02;6.05;;;1.95;;
67363;SDS011;54250;45.572;38.086;2023-09-19T13:54:30;5.60;;;1.90;;
67363;SDS011;54250;45.572;38.086;2023-09-19T13:56:56;3.08;;;1.40;;
67363;SDS011;54250;45.572;38.086;2023-09-19T13:59:23;1.25;;;1.15;;
67363;SDS011;54250;45.572;38.086;2023-09-19T14:01:49;6.90;;;1.35;;
67363;SDS011;54250;45.572;38.086;2023-09-19T14:04:16;4.45;;;1.00;;
67363;SDS011;54250;45.572;38.086;2023-09-19T14:06:42;5.40;;;1.33;;
67363;SDS011;54250;45.572;38.086;2023-09-19T14:09:08;3.70;;;1.30;;
67363;SDS011;54250;45.572;38.086;2023-09-19T14:11:36;2.38;;;1.30;;
67363;SDS011;54250;45.572;38.086;2023-09-19T14:14:02;1.48;;;1.10;;
67363;SDS011;54250;45.572;38.086;2023-09-19T14:16:30;18.02;;;1.67;;
67363;SDS011;54250;45.572;38.086;2023-09-19T14:18:56;6.80;;;1.65;;
67363;SDS011;54250;45.572;38.086;2023-09-19T14:21:25;1.38;;;1.00;;
67363;SDS011;54250;45.572;38.086;2023-09-19T14:23:56;3.00;;;1.40;;
67363;SDS011;54250;45.572;38.086;2023-09-19T14:26:22;3.42;;;1.15;;
67363;SDS011;54250;45.572;38.086;2023-09-19T14:28:49;3.22;;;1.17;;
67363;SDS011;54250;45.572;38.086;2023-09-19T14:31:15;1.88;;;0.95;;
67363;SDS011;54250;45.572;38.086;2023-09-19T14:33:41;1.98;;;1.40;;
67363;SDS011;54250;45.572;38.086;2023-09-19T14:36:07;1.98;;;1.20;;
67363;SDS011;54250;45.572;38.086;2023-09-19T14:38:36;2.97;;;1.08;;
67363;SDS011;54250;45.572;38.086;2023-09-19T14:41:03;8.57;;;2.00;;
67363;SDS011;54250;45.572;38.086;2023-09-19T14:43:31;2.78;;;1.23;;
67363;SDS011;54250;45.572;38.086;2023-09-19T14:46:07;3.78;;;1.50;;
67363;SDS011;54250;45.572;38.086;2023-09-19T14:48:33;2.63;;;0.90;;
67363;SDS011;54250;45.572;38.086;2023-09-19T14:51:03;1.05;;;0.90;;
67363;SDS011;54250;45.572;38.086;2023-09-19T14:53:30;5.55;;;1.30;;
67363;SDS011;54250;45.572;38.086;2023-09-19T14:55:59;7.85;;;1.02;;
67363;SDS011;54250;45.572;38.086;2023-09-19T14:58:28;2.00;;;1.15;;
67363;SDS011;54250;45.572;38.086;2023-09-19T15:01:05;2.20;;;1.20;;
67363;SDS011;54250;45.572;38.086;2023-09-19T15:03:34;1.70;;;0.90;;
67363;SDS011;54250;45.572;38.086;2023-09-19T15:06:06;0.85;;;0.80;;
67363;SDS011;54250;45.572;38.086;2023-09-19T15:08:45;3.22;;;1.13;;
67363;SDS011;54250;45.572;38.086;2023-09-19T15:11:19;8.02;;;1.73;;
67363;SDS011;54250;45.572;38.086;2023-09-19T15:13:46;2.72;;;1.30;;
67363;SDS011;54250;45.572;38.086;2023-09-19T15:16:13;16.30;;;1.50;;
67363;SDS011;54250;45.572;38.086;2023-09-19T15:18:40;9.07;;;1.25;;
67363;SDS011;54250;45.572;38.086;2023-09-19T15:21:08;10.07;;;1.38;;
67363;SDS011;54250;45.572;38.086;2023-09-19T15:23:36;3.63;;;1.27;;
67363;SDS011;54250;45.572;38.086;2023-09-19T15:26:06;7.43;;;1.40;;
67363;SDS011;54250;45.572;38.086;2023-09-19T15:28:39;3.45;;;1.33;;
67363;SDS011;54250;45.572;38.086;2023-09-19T15:31:09;6.53;;;1.50;;
67363;SDS011;54250;45.572;38.086;2023-09-19T15:33:36;10.18;;;1.52;;
67363;SDS011;54250;45.572;38.086;2023-09-19T15:38:56;14.50;;;1.75;;
67363;SDS011;54250;45.572;38.086;2023-09-19T15:41:25;14.52;;;2.00;;
67363;SDS011;54250;45.572;38.086;2023-09-19T15:43:52;14.48;;;2.65;;
67363;SDS011;54250;45.572;38.086;2023-09-19T15:46:19;8.65;;;1.70;;
67363;SDS011;54250;45.572;38.086;2023-09-19T15:48:46;4.93;;;1.45;;
67363;SDS011;54250;45.572;38.086;2023-09-19T15:51:13;23.88;;;1.65;;
67363;SDS011;54250;45.572;38.086;2023-09-19T15:53:45;5.78;;;1.73;;
67363;SDS011;54250;45.572;38.086;2023-09-19T15:56:17;11.43;;;1.38;;
67363;SDS011;54250;45.572;38.086;2023-09-19T15:58:50;3.35;;;1.17;;
67363;SDS011;54250;45.572;38.086;2023-09-19T16:01:17;9.93;;;1.23;;
67363;SDS011;54250;45.572;38.086;2023-09-19T16:03:51;1.20;;;1.10;;